sensor_id;sensor_type;location;lat;lon;timestamp;temperature;humidity
21167;DHT22;10741;52.272;9.580;2024-03-06T00:02:10;4.70;99.90
21167;DHT22;10741;52.272;9.580;2024-03-06T00:04:36;4.70;99.90
21167;DHT22;10741;52.272;9.580;2024-03-06T00:07:03;4.70;99.90
21167;DHT22;10741;52.272;9.580;2024-03-06T00:09:29;4.70;99.90
21167;DHT22;10741;52.272;9.580;2024-03-06T00:11:55;4.70;99.90
21167;DHT22;10741;52.272;9.580;2024-03-06T00:14:22;4.70;99.90
21167;DHT22;10741;52.272;9.580;2024-03-06T00:16:48;4.70;99.90
21167;DHT22;10741;52.272;9.580;2024-03-06T00:19:19;4.70;99.90
21167;DHT22;10741;52.272;9.580;2024-03-06T00:21:45;4.70;99.90
21167;DHT22;10741;52.272;9.580;2024-03-06T00:24:12;4.70;99.90
21167;DHT22;10741;52.272;9.580;2024-03-06T00:26:40;4.70;99.90
21167;DHT22;10741;52.272;9.580;2024-03-06T00:29:06;4.70;99.90
21167;DHT22;10741;52.272;9.580;2024-03-06T00:31:31;4.70;99.90
21167;DHT22;10741;52.272;9.580;2024-03-06T00:33:57;4.70;99.90
21167;DHT22;10741;52.272;9.580;2024-03-06T00:36:23;4.70;99.90
21167;DHT22;10741;52.272;9.580;2024-03-06T00:38:48;4.70;99.90
21167;DHT22;10741;52.272;9.580;2024-03-06T00:41:14;4.70;99.90
21167;DHT22;10741;52.272;9.580;2024-03-06T00:43:40;4.60;99.90
21167;DHT22;10741;52.272;9.580;2024-03-06T00:46:05;4.70;99.90
21167;DHT22;10741;52.272;9.580;2024-03-06T00:48:32;4.70;99.90
21167;DHT22;10741;52.272;9.580;2024-03-06T00:50:58;4.70;99.90
21167;DHT22;10741;52.272;9.580;2024-03-06T00:53:23;4.70;99.90
21167;DHT22;10741;52.272;9.580;2024-03-06T00:55:49;4.70;99.90
21167;DHT22;10741;52.272;9.580;2024-03-06T00:58:15;4.70;99.90
21167;DHT22;10741;52.272;9.580;2024-03-06T01:00:41;4.70;99.90
21167;DHT22;10741;52.272;9.580;2024-03-06T01:03:06;4.70;99.90
21167;DHT22;10741;52.272;9.580;2024-03-06T01:05:32;4.70;99.90
21167;DHT22;10741;52.272;9.580;2024-03-06T01:07:58;4.70;99.90
21167;DHT22;10741;52.272;9.580;2024-03-06T01:10:24;4.70;99.90
21167;DHT22;10741;52.272;9.580;2024-03-06T01:12:50;4.70;99.90
21167;DHT22;10741;52.272;9.580;2024-03-06T01:15:15;4.70;99.90
21167;DHT22;10741;52.272;9.580;2024-03-06T01:17:41;4.70;99.90
21167;DHT22;10741;52.272;9.580;2024-03-06T01:20:07;4.70;99.90
21167;DHT22;10741;52.272;9.580;2024-03-06T01:22:36;4.70;99.90
21167;DHT22;10741;52.272;9.580;2024-03-06T01:25:02;4.70;99.90
21167;DHT22;10741;52.272;9.580;2024-03-06T01:27:28;4.70;99.90
21167;DHT22;10741;52.272;9.580;2024-03-06T01:29:53;4.70;99.90
21167;DHT22;10741;52.272;9.580;2024-03-06T01:32:19;4.70;99.90
21167;DHT22;10741;52.272;9.580;2024-03-06T01:34:44;4.70;99.90
21167;DHT22;10741;52.272;9.580;2024-03-06T01:37:10;4.70;99.90
21167;DHT22;10741;52.272;9.580;2024-03-06T01:39:36;4.70;99.90
21167;DHT22;10741;52.272;9.580;2024-03-06T01:42:02;4.70;99.90
21167;DHT22;10741;52.272;9.580;2024-03-06T01:44:27;4.70;99.90
21167;DHT22;10741;52.272;9.580;2024-03-06T01:46:53;4.70;99.90
21167;DHT22;10741;52.272;9.580;2024-03-06T01:49:19;4.70;99.90
21167;DHT22;10741;52.272;9.580;2024-03-06T01:51:50;4.70;99.90
21167;DHT22;10741;52.272;9.580;2024-03-06T01:54:17;4.70;99.90
21167;DHT22;10741;52.272;9.580;2024-03-06T01:56:45;4.70;99.90
21167;DHT22;10741;52.272;9.580;2024-03-06T01:59:12;4.70;99.90
21167;DHT22;10741;52.272;9.580;2024-03-06T02:01:39;4.70;99.90
21167;DHT22;10741;52.272;9.580;2024-03-06T02:04:06;4.70;99.90
21167;DHT22;10741;52.272;9.580;2024-03-06T02:06:35;4.70;99.90
21167;DHT22;10741;52.272;9.580;2024-03-06T02:09:01;4.70;99.90
21167;DHT22;10741;52.272;9.580;2024-03-06T02:11:28;4.70;99.90
21167;DHT22;10741;52.272;9.580;2024-03-06T02:13:55;4.70;99.90
21167;DHT22;10741;52.272;9.580;2024-03-06T02:16:20;4.70;99.90
21167;DHT22;10741;52.272;9.580;2024-03-06T02:18:53;4.70;99.90
21167;DHT22;10741;52.272;9.580;2024-03-06T02:21:20;4.70;99.90
21167;DHT22;10741;52.272;9.580;2024-03-06T02:23:46;4.70;99.90
21167;DHT22;10741;52.272;9.580;2024-03-06T02:26:11;4.70;99.90
21167;DHT22;10741;52.272;9.580;2024-03-06T02:28:37;4.70;99.90
21167;DHT22;10741;52.272;9.580;2024-03-06T02:31:03;4.70;99.90
21167;DHT22;10741;52.272;9.580;2024-03-06T02:33:30;4.70;99.90
21167;DHT22;10741;52.272;9.580;2024-03-06T02:35:56;4.70;99.90
21167;DHT22;10741;52.272;9.580;2024-03-06T02:38:21;4.70;99.90
21167;DHT22;10741;52.272;9.580;2024-03-06T02:40:47;4.70;99.90
21167;DHT22;10741;52.272;9.580;2024-03-06T02:43:13;4.70;99.90
21167;DHT22;10741;52.272;9.580;2024-03-06T02:45:39;4.70;99.90
21167;DHT22;10741;52.272;9.580;2024-03-06T02:48:04;4.70;99.90
21167;DHT22;10741;52.272;9.580;2024-03-06T02:50:30;4.70;99.90
21167;DHT22;10741;52.272;9.580;2024-03-06T02:52:56;4.70;99.90
21167;DHT22;10741;52.272;9.580;2024-03-06T02:55:22;4.70;99.90
21167;DHT22;10741;52.272;9.580;2024-03-06T02:57:49;4.70;99.90
21167;DHT22;10741;52.272;9.580;2024-03-06T03:00:15;4.70;99.90
21167;DHT22;10741;52.272;9.580;2024-03-06T03:02:41;4.70;99.90
21167;DHT22;10741;52.272;9.580;2024-03-06T03:05:08;4.70;99.90
21167;DHT22;10741;52.272;9.580;2024-03-06T03:07:34;4.70;99.90
21167;DHT22;10741;52.272;9.580;2024-03-06T03:09:59;4.70;99.90
21167;DHT22;10741;52.272;9.580;2024-03-06T03:12:25;4.70;99.90
21167;DHT22;10741;52.272;9.580;2024-03-06T03:14:51;4.70;99.90
21167;DHT22;10741;52.272;9.580;2024-03-06T03:17:18;4.70;99.90
21167;DHT22;10741;52.272;9.580;2024-03-06T03:19:45;4.70;99.90
21167;DHT22;10741;52.272;9.580;2024-03-06T03:22:10;4.70;99.90
21167;DHT22;10741;52.272;9.580;2024-03-06T03:24:36;4.70;99.90
21167;DHT22;10741;52.272;9.580;2024-03-06T03:27:02;4.70;99.90
21167;DHT22;10741;52.272;9.580;2024-03-06T03:29:28;4.70;99.90
21167;DHT22;10741;52.272;9.580;2024-03-06T03:31:55;4.70;99.90
21167;DHT22;10741;52.272;9.580;2024-03-06T03:34:20;4.70;99.90
21167;DHT22;10741;52.272;9.580;2024-03-06T03:36:46;4.60;99.90
21167;DHT22;10741;52.272;9.580;2024-03-06T03:39:12;4.60;99.90
21167;DHT22;10741;52.272;9.580;2024-03-06T03:41:48;4.60;99.90
21167;DHT22;10741;52.272;9.580;2024-03-06T03:44:17;4.60;99.90
21167;DHT22;10741;52.272;9.580;2024-03-06T03:46:44;4.60;99.90
21167;DHT22;10741;52.272;9.580;2024-03-06T03:49:10;4.60;99.90
21167;DHT22;10741;52.272;9.580;2024-03-06T03:51:38;4.60;99.90
21167;DHT22;10741;52.272;9.580;2024-03-06T03:54:05;4.60;99.90
21167;DHT22;10741;52.272;9.580;2024-03-06T03:56:31;4.60;99.90
21167;DHT22;10741;52.272;9.580;2024-03-06T03:58:57;4.60;99.90
21167;DHT22;10741;52.272;9.580;2024-03-06T04:01:24;4.60;99.90
21167;DHT22;10741;52.272;9.580;2024-03-06T04:03:49;4.60;99.90
21167;DHT22;10741;52.272;9.580;2024-03-06T04:06:16;4.60;99.90
21167;DHT22;10741;52.272;9.580;2024-03-06T04:08:42;4.60;99.90
21167;DHT22;10741;52.272;9.580;2024-03-06T04:11:08;4.60;99.90
21167;DHT22;10741;52.272;9.580;2024-03-06T04:13:37;4.60;99.90
21167;DHT22;10741;52.272;9.580;2024-03-06T04:16:03;4.60;99.90
21167;DHT22;10741;52.272;9.580;2024-03-06T04:18:30;4.50;99.90
21167;DHT22;10741;52.272;9.580;2024-03-06T04:21:03;4.60;99.90
21167;DHT22;10741;52.272;9.580;2024-03-06T04:23:29;4.50;99.90
21167;DHT22;10741;52.272;9.580;2024-03-06T04:25:55;4.50;99.90
21167;DHT22;10741;52.272;9.580;2024-03-06T04:28:21;4.50;99.90
21167;DHT22;10741;52.272;9.580;2024-03-06T04:30:47;4.50;99.90
21167;DHT22;10741;52.272;9.580;2024-03-06T04:33:12;4.50;99.90
21167;DHT22;10741;52.272;9.580;2024-03-06T04:35:40;4.50;99.90
21167;DHT22;10741;52.272;9.580;2024-03-06T04:38:06;4.50;99.90
21167;DHT22;10741;52.272;9.580;2024-03-06T04:40:32;4.50;99.90
21167;DHT22;10741;52.272;9.580;2024-03-06T04:42:58;4.50;99.90
21167;DHT22;10741;52.272;9.580;2024-03-06T04:45:23;4.50;99.90
21167;DHT22;10741;52.272;9.580;2024-03-06T04:47:49;4.50;99.90
21167;DHT22;10741;52.272;9.580;2024-03-06T04:50:15;4.50;99.90
21167;DHT22;10741;52.272;9.580;2024-03-06T04:52:41;4.50;99.90
21167;DHT22;10741;52.272;9.580;2024-03-06T04:55:08;4.50;99.90
21167;DHT22;10741;52.272;9.580;2024-03-06T04:57:39;4.50;99.90
21167;DHT22;10741;52.272;9.580;2024-03-06T05:00:06;4.50;99.90
21167;DHT22;10741;52.272;9.580;2024-03-06T05:02:35;4.50;99.90
21167;DHT22;10741;52.272;9.580;2024-03-06T05:05:03;4.50;99.90
21167;DHT22;10741;52.272;9.580;2024-03-06T05:07:30;4.50;99.90
21167;DHT22;10741;52.272;9.580;2024-03-06T05:09:56;4.50;99.90
21167;DHT22;10741;52.272;9.580;2024-03-06T05:12:28;4.50;99.90
21167;DHT22;10741;52.272;9.580;2024-03-06T05:14:54;4.50;99.90
21167;DHT22;10741;52.272;9.580;2024-03-06T05:17:20;4.50;99.90
21167;DHT22;10741;52.272;9.580;2024-03-06T05:19:46;4.50;99.90
21167;DHT22;10741;52.272;9.580;2024-03-06T05:22:13;4.50;99.90
21167;DHT22;10741;52.272;9.580;2024-03-06T05:24:39;4.50;99.90
21167;DHT22;10741;52.272;9.580;2024-03-06T05:27:05;4.50;99.90
21167;DHT22;10741;52.272;9.580;2024-03-06T05:29:31;4.50;99.90
21167;DHT22;10741;52.272;9.580;2024-03-06T05:31:57;4.50;99.90
21167;DHT22;10741;52.272;9.580;2024-03-06T05:34:23;4.50;99.90
21167;DHT22;10741;52.272;9.580;2024-03-06T05:36:49;4.50;99.90
21167;DHT22;10741;52.272;9.580;2024-03-06T05:39:14;4.50;99.90
21167;DHT22;10741;52.272;9.580;2024-03-06T05:41:40;4.40;99.90
21167;DHT22;10741;52.272;9.580;2024-03-06T05:44:07;4.40;99.90
21167;DHT22;10741;52.272;9.580;2024-03-06T05:46:33;4.40;99.90
21167;DHT22;10741;52.272;9.580;2024-03-06T05:48:59;4.40;99.90
21167;DHT22;10741;52.272;9.580;2024-03-06T05:51:25;4.40;99.90
21167;DHT22;10741;52.272;9.580;2024-03-06T05:53:50;4.40;99.90
21167;DHT22;10741;52.272;9.580;2024-03-06T05:56:19;4.40;99.90
21167;DHT22;10741;52.272;9.580;2024-03-06T05:58:45;4.40;99.90
21167;DHT22;10741;52.272;9.580;2024-03-06T06:01:15;4.40;99.90
21167;DHT22;10741;52.272;9.580;2024-03-06T06:03:44;4.40;99.90
21167;DHT22;10741;52.272;9.580;2024-03-06T06:06:09;4.40;99.90
21167;DHT22;10741;52.272;9.580;2024-03-06T06:08:35;4.40;99.90
21167;DHT22;10741;52.272;9.580;2024-03-06T06:11:02;4.40;99.90
21167;DHT22;10741;52.272;9.580;2024-03-06T06:13:29;4.40;99.90
21167;DHT22;10741;52.272;9.580;2024-03-06T06:15:55;4.40;99.90
21167;DHT22;10741;52.272;9.580;2024-03-06T06:18:23;4.40;99.90
21167;DHT22;10741;52.272;9.580;2024-03-06T06:20:48;4.40;99.90
21167;DHT22;10741;52.272;9.580;2024-03-06T06:23:14;4.50;99.90
21167;DHT22;10741;52.272;9.580;2024-03-06T06:25:39;4.50;99.90
21167;DHT22;10741;52.272;9.580;2024-03-06T06:28:05;4.50;99.90
21167;DHT22;10741;52.272;9.580;2024-03-06T06:30:31;4.50;99.90
21167;DHT22;10741;52.272;9.580;2024-03-06T06:32:57;4.50;99.90
21167;DHT22;10741;52.272;9.580;2024-03-06T06:35:23;4.50;99.90
21167;DHT22;10741;52.272;9.580;2024-03-06T06:37:50;4.60;99.90
21167;DHT22;10741;52.272;9.580;2024-03-06T06:40:16;4.60;99.90
21167;DHT22;10741;52.272;9.580;2024-03-06T06:42:45;4.60;99.90
21167;DHT22;10741;52.272;9.580;2024-03-06T06:45:15;4.60;99.90
21167;DHT22;10741;52.272;9.580;2024-03-06T06:47:41;4.60;99.90
21167;DHT22;10741;52.272;9.580;2024-03-06T06:50:07;4.70;99.90
21167;DHT22;10741;52.272;9.580;2024-03-06T06:52:34;4.70;99.90
21167;DHT22;10741;52.272;9.580;2024-03-06T06:55:00;4.70;99.90
21167;DHT22;10741;52.272;9.580;2024-03-06T06:57:26;4.70;99.90
21167;DHT22;10741;52.272;9.580;2024-03-06T06:59:52;4.70;99.90
21167;DHT22;10741;52.272;9.580;2024-03-06T07:02:18;4.70;99.90
21167;DHT22;10741;52.272;9.580;2024-03-06T07:04:43;4.70;99.90
21167;DHT22;10741;52.272;9.580;2024-03-06T07:07:09;4.70;99.90
21167;DHT22;10741;52.272;9.580;2024-03-06T07:09:34;4.70;99.90
21167;DHT22;10741;52.272;9.580;2024-03-06T07:12:00;4.70;99.90
21167;DHT22;10741;52.272;9.580;2024-03-06T07:14:26;4.80;99.90
21167;DHT22;10741;52.272;9.580;2024-03-06T07:16:51;4.70;99.90
21167;DHT22;10741;52.272;9.580;2024-03-06T07:19:17;4.70;99.90
21167;DHT22;10741;52.272;9.580;2024-03-06T07:21:43;4.80;99.90
21167;DHT22;10741;52.272;9.580;2024-03-06T07:24:09;4.80;99.90
21167;DHT22;10741;52.272;9.580;2024-03-06T07:26:34;4.80;99.90
21167;DHT22;10741;52.272;9.580;2024-03-06T07:29:00;4.80;99.90
21167;DHT22;10741;52.272;9.580;2024-03-06T07:31:26;4.90;99.90
21167;DHT22;10741;52.272;9.580;2024-03-06T07:33:52;4.90;99.90
21167;DHT22;10741;52.272;9.580;2024-03-06T07:36:18;4.90;99.90
21167;DHT22;10741;52.272;9.580;2024-03-06T07:38:44;4.90;99.90
21167;DHT22;10741;52.272;9.580;2024-03-06T07:41:10;4.90;99.90
21167;DHT22;10741;52.272;9.580;2024-03-06T07:43:37;5.00;99.90
21167;DHT22;10741;52.272;9.580;2024-03-06T07:46:04;5.10;99.90
21167;DHT22;10741;52.272;9.580;2024-03-06T07:48:38;5.10;99.90
21167;DHT22;10741;52.272;9.580;2024-03-06T07:51:04;5.10;99.90
21167;DHT22;10741;52.272;9.580;2024-03-06T07:53:29;5.10;99.90
21167;DHT22;10741;52.272;9.580;2024-03-06T07:55:55;5.10;99.90
21167;DHT22;10741;52.272;9.580;2024-03-06T07:58:21;5.20;99.90
21167;DHT22;10741;52.272;9.580;2024-03-06T08:00:46;5.10;99.90
21167;DHT22;10741;52.272;9.580;2024-03-06T08:03:12;5.20;99.90
21167;DHT22;10741;52.272;9.580;2024-03-06T08:05:39;5.20;99.90
21167;DHT22;10741;52.272;9.580;2024-03-06T08:08:05;5.30;99.90
21167;DHT22;10741;52.272;9.580;2024-03-06T08:10:30;5.30;99.90
21167;DHT22;10741;52.272;9.580;2024-03-06T08:12:56;5.30;99.90
21167;DHT22;10741;52.272;9.580;2024-03-06T08:15:23;5.30;99.90
21167;DHT22;10741;52.272;9.580;2024-03-06T08:17:49;5.40;99.90
21167;DHT22;10741;52.272;9.580;2024-03-06T08:20:15;5.30;99.90
21167;DHT22;10741;52.272;9.580;2024-03-06T08:22:42;5.30;99.90
21167;DHT22;10741;52.272;9.580;2024-03-06T08:25:09;5.30;99.90
21167;DHT22;10741;52.272;9.580;2024-03-06T08:27:36;5.30;99.90
21167;DHT22;10741;52.272;9.580;2024-03-06T08:30:06;5.40;99.90
21167;DHT22;10741;52.272;9.580;2024-03-06T08:32:33;5.40;99.90
21167;DHT22;10741;52.272;9.580;2024-03-06T08:35:04;5.40;99.90
21167;DHT22;10741;52.272;9.580;2024-03-06T08:37:33;5.30;99.90
21167;DHT22;10741;52.272;9.580;2024-03-06T08:39:59;5.30;99.90
21167;DHT22;10741;52.272;9.580;2024-03-06T08:42:25;5.40;99.90
21167;DHT22;10741;52.272;9.580;2024-03-06T08:44:51;5.40;99.90
21167;DHT22;10741;52.272;9.580;2024-03-06T08:47:16;5.40;99.90
21167;DHT22;10741;52.272;9.580;2024-03-06T08:49:42;5.40;99.90
21167;DHT22;10741;52.272;9.580;2024-03-06T08:52:08;5.40;99.90
21167;DHT22;10741;52.272;9.580;2024-03-06T08:54:35;5.40;99.90
21167;DHT22;10741;52.272;9.580;2024-03-06T08:57:01;5.50;99.90
21167;DHT22;10741;52.272;9.580;2024-03-06T08:59:28;5.50;99.90
21167;DHT22;10741;52.272;9.580;2024-03-06T09:01:55;5.50;99.90
21167;DHT22;10741;52.272;9.580;2024-03-06T09:04:24;5.40;99.90
21167;DHT22;10741;52.272;9.580;2024-03-06T09:06:49;5.40;99.90
21167;DHT22;10741;52.272;9.580;2024-03-06T09:09:15;5.40;99.90
21167;DHT22;10741;52.272;9.580;2024-03-06T09:11:41;5.40;99.90
21167;DHT22;10741;52.272;9.580;2024-03-06T09:14:10;5.40;99.90
21167;DHT22;10741;52.272;9.580;2024-03-06T09:16:36;5.40;99.90
21167;DHT22;10741;52.272;9.580;2024-03-06T09:19:01;5.40;99.90
21167;DHT22;10741;52.272;9.580;2024-03-06T09:21:28;5.40;99.90
21167;DHT22;10741;52.272;9.580;2024-03-06T09:23:53;5.50;99.90
21167;DHT22;10741;52.272;9.580;2024-03-06T09:26:19;5.50;99.90
21167;DHT22;10741;52.272;9.580;2024-03-06T09:28:46;5.50;99.90
21167;DHT22;10741;52.272;9.580;2024-03-06T09:31:11;5.50;99.90
21167;DHT22;10741;52.272;9.580;2024-03-06T09:33:39;5.60;99.90
21167;DHT22;10741;52.272;9.580;2024-03-06T09:36:05;5.60;99.90
21167;DHT22;10741;52.272;9.580;2024-03-06T09:38:31;5.60;99.90
21167;DHT22;10741;52.272;9.580;2024-03-06T09:40:57;5.70;99.90
21167;DHT22;10741;52.272;9.580;2024-03-06T09:43:22;5.70;99.90
21167;DHT22;10741;52.272;9.580;2024-03-06T09:45:50;5.70;99.90
21167;DHT22;10741;52.272;9.580;2024-03-06T09:48:20;5.70;99.90
21167;DHT22;10741;52.272;9.580;2024-03-06T09:50:46;5.70;99.90
21167;DHT22;10741;52.272;9.580;2024-03-06T09:53:15;5.70;99.90
21167;DHT22;10741;52.272;9.580;2024-03-06T09:55:42;5.80;99.90
21167;DHT22;10741;52.272;9.580;2024-03-06T09:58:08;5.80;99.90
21167;DHT22;10741;52.272;9.580;2024-03-06T10:00:37;5.80;99.90
21167;DHT22;10741;52.272;9.580;2024-03-06T10:03:03;5.80;99.90
21167;DHT22;10741;52.272;9.580;2024-03-06T10:05:34;5.80;99.90
21167;DHT22;10741;52.272;9.580;2024-03-06T10:08:03;5.80;99.90
21167;DHT22;10741;52.272;9.580;2024-03-06T10:10:30;5.80;99.90
21167;DHT22;10741;52.272;9.580;2024-03-06T10:12:56;5.80;99.90
21167;DHT22;10741;52.272;9.580;2024-03-06T10:15:26;5.90;99.90
21167;DHT22;10741;52.272;9.580;2024-03-06T10:18:14;5.80;99.90
21167;DHT22;10741;52.272;9.580;2024-03-06T10:20:41;5.90;99.90
21167;DHT22;10741;52.272;9.580;2024-03-06T10:23:09;5.90;99.90
21167;DHT22;10741;52.272;9.580;2024-03-06T10:25:36;5.90;99.90
21167;DHT22;10741;52.272;9.580;2024-03-06T10:28:10;6.00;99.90
21167;DHT22;10741;52.272;9.580;2024-03-06T10:30:40;6.00;99.90
21167;DHT22;10741;52.272;9.580;2024-03-06T10:33:11;6.20;99.90
21167;DHT22;10741;52.272;9.580;2024-03-06T10:35:37;6.30;99.90
21167;DHT22;10741;52.272;9.580;2024-03-06T10:38:04;6.30;99.90
21167;DHT22;10741;52.272;9.580;2024-03-06T10:40:42;6.40;99.90
21167;DHT22;10741;52.272;9.580;2024-03-06T10:43:08;6.50;99.90
21167;DHT22;10741;52.272;9.580;2024-03-06T10:45:47;6.60;99.90
21167;DHT22;10741;52.272;9.580;2024-03-06T10:48:14;6.70;99.90
21167;DHT22;10741;52.272;9.580;2024-03-06T10:50:40;6.70;99.90
21167;DHT22;10741;52.272;9.580;2024-03-06T10:53:10;6.70;99.90
21167;DHT22;10741;52.272;9.580;2024-03-06T10:55:37;6.70;99.90
21167;DHT22;10741;52.272;9.580;2024-03-06T10:58:05;6.80;99.90
21167;DHT22;10741;52.272;9.580;2024-03-06T11:00:39;6.90;99.90
21167;DHT22;10741;52.272;9.580;2024-03-06T11:03:06;7.00;99.90
21167;DHT22;10741;52.272;9.580;2024-03-06T11:05:42;7.00;99.90
21167;DHT22;10741;52.272;9.580;2024-03-06T11:08:08;7.10;99.90
21167;DHT22;10741;52.272;9.580;2024-03-06T11:10:36;7.10;99.90
21167;DHT22;10741;52.272;9.580;2024-03-06T11:13:02;7.10;99.90
21167;DHT22;10741;52.272;9.580;2024-03-06T11:15:30;7.10;99.90
21167;DHT22;10741;52.272;9.580;2024-03-06T11:17:55;7.10;99.90
21167;DHT22;10741;52.272;9.580;2024-03-06T11:20:21;7.10;99.90
21167;DHT22;10741;52.272;9.580;2024-03-06T11:28:41;7.30;99.90
21167;DHT22;10741;52.272;9.580;2024-03-06T11:31:16;7.40;99.90
21167;DHT22;10741;52.272;9.580;2024-03-06T11:33:46;7.40;99.90
21167;DHT22;10741;52.272;9.580;2024-03-06T11:38:41;7.60;99.90
21167;DHT22;10741;52.272;9.580;2024-03-06T11:41:06;7.60;99.90
21167;DHT22;10741;52.272;9.580;2024-03-06T11:43:42;7.70;99.90
21167;DHT22;10741;52.272;9.580;2024-03-06T11:46:11;7.80;99.90
21167;DHT22;10741;52.272;9.580;2024-03-06T11:48:37;7.80;99.90
21167;DHT22;10741;52.272;9.580;2024-03-06T11:51:03;7.80;99.90
21167;DHT22;10741;52.272;9.580;2024-03-06T11:53:30;7.80;99.90
21167;DHT22;10741;52.272;9.580;2024-03-06T11:55:58;7.80;99.90
21167;DHT22;10741;52.272;9.580;2024-03-06T11:58:23;8.00;99.90
21167;DHT22;10741;52.272;9.580;2024-03-06T12:00:49;7.90;99.90
21167;DHT22;10741;52.272;9.580;2024-03-06T12:03:15;7.90;99.90
21167;DHT22;10741;52.272;9.580;2024-03-06T12:05:41;8.10;99.90
21167;DHT22;10741;52.272;9.580;2024-03-06T12:08:07;8.10;99.90
21167;DHT22;10741;52.272;9.580;2024-03-06T12:10:39;8.20;99.90
21167;DHT22;10741;52.272;9.580;2024-03-06T12:13:05;8.20;99.90
21167;DHT22;10741;52.272;9.580;2024-03-06T12:15:31;8.30;99.90
21167;DHT22;10741;52.272;9.580;2024-03-06T12:17:56;8.40;99.90
21167;DHT22;10741;52.272;9.580;2024-03-06T12:20:24;8.40;99.90
21167;DHT22;10741;52.272;9.580;2024-03-06T12:22:52;8.50;99.90
21167;DHT22;10741;52.272;9.580;2024-03-06T12:25:23;8.40;99.90
21167;DHT22;10741;52.272;9.580;2024-03-06T12:27:50;8.50;99.90
21167;DHT22;10741;52.272;9.580;2024-03-06T12:30:22;8.50;99.90
21167;DHT22;10741;52.272;9.580;2024-03-06T12:32:58;8.50;99.90
21167;DHT22;10741;52.272;9.580;2024-03-06T12:35:25;8.50;99.90
21167;DHT22;10741;52.272;9.580;2024-03-06T12:37:51;8.60;99.90
21167;DHT22;10741;52.272;9.580;2024-03-06T12:40:18;8.70;99.90
21167;DHT22;10741;52.272;9.580;2024-03-06T12:42:44;8.70;99.90
21167;DHT22;10741;52.272;9.580;2024-03-06T12:45:11;8.70;99.90
21167;DHT22;10741;52.272;9.580;2024-03-06T12:47:41;8.70;99.90
21167;DHT22;10741;52.272;9.580;2024-03-06T12:50:07;8.80;99.90
21167;DHT22;10741;52.272;9.580;2024-03-06T12:52:37;8.80;99.90
21167;DHT22;10741;52.272;9.580;2024-03-06T12:55:02;8.80;99.90
21167;DHT22;10741;52.272;9.580;2024-03-06T12:57:31;8.80;99.90
21167;DHT22;10741;52.272;9.580;2024-03-06T12:59:57;8.90;99.90
21167;DHT22;10741;52.272;9.580;2024-03-06T13:02:22;8.90;99.90
21167;DHT22;10741;52.272;9.580;2024-03-06T13:04:48;9.00;99.90
21167;DHT22;10741;52.272;9.580;2024-03-06T13:07:14;9.10;99.90
21167;DHT22;10741;52.272;9.580;2024-03-06T13:09:40;9.20;99.90
21167;DHT22;10741;52.272;9.580;2024-03-06T13:12:05;9.30;99.90
21167;DHT22;10741;52.272;9.580;2024-03-06T13:14:31;9.40;99.90
21167;DHT22;10741;52.272;9.580;2024-03-06T13:16:58;9.40;99.90
21167;DHT22;10741;52.272;9.580;2024-03-06T13:19:23;9.30;99.90
21167;DHT22;10741;52.272;9.580;2024-03-06T13:21:49;9.30;99.90
21167;DHT22;10741;52.272;9.580;2024-03-06T13:24:15;9.20;99.90
21167;DHT22;10741;52.272;9.580;2024-03-06T13:26:40;9.10;99.90
21167;DHT22;10741;52.272;9.580;2024-03-06T13:29:07;9.10;99.90
21167;DHT22;10741;52.272;9.580;2024-03-06T13:31:32;9.00;99.90
21167;DHT22;10741;52.272;9.580;2024-03-06T13:34:02;9.00;99.90
21167;DHT22;10741;52.272;9.580;2024-03-06T13:36:29;9.00;99.90
21167;DHT22;10741;52.272;9.580;2024-03-06T13:38:55;9.00;99.90
21167;DHT22;10741;52.272;9.580;2024-03-06T13:41:21;9.10;99.90
21167;DHT22;10741;52.272;9.580;2024-03-06T13:43:46;9.20;99.90
21167;DHT22;10741;52.272;9.580;2024-03-06T13:46:12;9.30;99.90
21167;DHT22;10741;52.272;9.580;2024-03-06T13:48:38;9.20;99.90
21167;DHT22;10741;52.272;9.580;2024-03-06T13:51:04;9.20;99.90
21167;DHT22;10741;52.272;9.580;2024-03-06T13:53:30;9.20;99.90
21167;DHT22;10741;52.272;9.580;2024-03-06T13:55:56;9.20;99.90
21167;DHT22;10741;52.272;9.580;2024-03-06T13:58:22;9.30;99.90
21167;DHT22;10741;52.272;9.580;2024-03-06T14:00:47;9.20;99.90
21167;DHT22;10741;52.272;9.580;2024-03-06T14:03:13;9.10;99.90
21167;DHT22;10741;52.272;9.580;2024-03-06T14:05:38;9.10;99.90
21167;DHT22;10741;52.272;9.580;2024-03-06T14:08:05;9.10;99.90
21167;DHT22;10741;52.272;9.580;2024-03-06T14:10:31;9.10;99.90
21167;DHT22;10741;52.272;9.580;2024-03-06T14:13:00;9.10;99.90
21167;DHT22;10741;52.272;9.580;2024-03-06T14:15:25;9.00;99.90
21167;DHT22;10741;52.272;9.580;2024-03-06T14:17:52;9.10;99.90
21167;DHT22;10741;52.272;9.580;2024-03-06T14:20:20;9.10;99.90
21167;DHT22;10741;52.272;9.580;2024-03-06T14:22:45;9.00;99.90
21167;DHT22;10741;52.272;9.580;2024-03-06T14:25:11;9.00;99.90
21167;DHT22;10741;52.272;9.580;2024-03-06T14:27:37;8.90;99.90
21167;DHT22;10741;52.272;9.580;2024-03-06T14:30:07;9.00;99.90
21167;DHT22;10741;52.272;9.580;2024-03-06T14:32:33;8.90;99.90
21167;DHT22;10741;52.272;9.580;2024-03-06T14:34:58;8.90;99.90
21167;DHT22;10741;52.272;9.580;2024-03-06T14:37:24;8.90;99.90
21167;DHT22;10741;52.272;9.580;2024-03-06T14:39:50;8.90;99.90
21167;DHT22;10741;52.272;9.580;2024-03-06T14:42:16;8.90;99.90
21167;DHT22;10741;52.272;9.580;2024-03-06T14:44:42;9.00;99.90
21167;DHT22;10741;52.272;9.580;2024-03-06T14:47:09;8.90;99.90
21167;DHT22;10741;52.272;9.580;2024-03-06T14:49:35;9.00;99.90
21167;DHT22;10741;52.272;9.580;2024-03-06T14:52:01;9.30;99.90
21167;DHT22;10741;52.272;9.580;2024-03-06T14:54:28;9.10;99.90
21167;DHT22;10741;52.272;9.580;2024-03-06T14:56:54;9.10;99.90
21167;DHT22;10741;52.272;9.580;2024-03-06T14:59:20;9.10;99.90
21167;DHT22;10741;52.272;9.580;2024-03-06T15:01:46;9.10;99.90
21167;DHT22;10741;52.272;9.580;2024-03-06T15:04:13;9.20;99.90
21167;DHT22;10741;52.272;9.580;2024-03-06T15:06:39;9.10;99.90
21167;DHT22;10741;52.272;9.580;2024-03-06T15:09:05;9.20;99.90
21167;DHT22;10741;52.272;9.580;2024-03-06T15:11:31;9.10;99.90
21167;DHT22;10741;52.272;9.580;2024-03-06T15:14:01;9.20;99.90
21167;DHT22;10741;52.272;9.580;2024-03-06T15:16:27;9.00;99.90
21167;DHT22;10741;52.272;9.580;2024-03-06T15:18:52;9.00;99.90
21167;DHT22;10741;52.272;9.580;2024-03-06T15:21:21;8.90;99.90
21167;DHT22;10741;52.272;9.580;2024-03-06T15:23:46;9.00;99.90
21167;DHT22;10741;52.272;9.580;2024-03-06T15:26:15;9.00;99.90
21167;DHT22;10741;52.272;9.580;2024-03-06T15:28:41;9.00;99.90
21167;DHT22;10741;52.272;9.580;2024-03-06T15:31:06;9.10;99.90
21167;DHT22;10741;52.272;9.580;2024-03-06T15:33:32;9.10;99.90
21167;DHT22;10741;52.272;9.580;2024-03-06T15:35:59;9.00;99.90
21167;DHT22;10741;52.272;9.580;2024-03-06T15:38:25;9.00;99.90
21167;DHT22;10741;52.272;9.580;2024-03-06T15:40:52;8.90;99.90
21167;DHT22;10741;52.272;9.580;2024-03-06T15:43:18;8.90;99.90
21167;DHT22;10741;52.272;9.580;2024-03-06T15:45:44;8.90;99.90
21167;DHT22;10741;52.272;9.580;2024-03-06T15:48:10;8.90;99.90
21167;DHT22;10741;52.272;9.580;2024-03-06T15:50:43;8.80;99.90